sensor_id;sensor_type;location;lat;lon;timestamp;P1;durP1;ratioP1;P2;durP2;ratioP2
84351;SDS011;75904;43.524;1.518;2024-02-26T00:01:21;29.65;;;9.07;;
84351;SDS011;75904;43.524;1.518;2024-02-26T00:03:46;25.48;;;8.73;;
84351;SDS011;75904;43.524;1.518;2024-02-26T00:06:12;29.45;;;8.52;;
84351;SDS011;75904;43.524;1.518;2024-02-26T00:08:37;24.50;;;8.18;;
84351;SDS011;75904;43.524;1.518;2024-02-26T00:11:03;24.25;;;7.82;;
84351;SDS011;75904;43.524;1.518;2024-02-26T00:13:28;19.95;;;7.18;;
84351;SDS011;75904;43.524;1.518;2024-02-26T00:15:54;21.60;;;6.88;;
84351;SDS011;75904;43.524;1.518;2024-02-26T00:18:19;23.85;;;7.15;;
84351;SDS011;75904;43.524;1.518;2024-02-26T00:20:44;21.52;;;7.47;;
84351;SDS011;75904;43.524;1.518;2024-02-26T00:23:10;25.05;;;6.88;;
84351;SDS011;75904;43.524;1.518;2024-02-26T00:25:35;21.50;;;7.00;;
84351;SDS011;75904;43.524;1.518;2024-02-26T00:28:02;20.60;;;6.97;;
84351;SDS011;75904;43.524;1.518;2024-02-26T00:30:28;24.20;;;7.55;;
84351;SDS011;75904;43.524;1.518;2024-02-26T00:32:54;29.83;;;9.05;;
84351;SDS011;75904;43.524;1.518;2024-02-26T00:35:19;24.42;;;7.60;;
84351;SDS011;75904;43.524;1.518;2024-02-26T00:37:45;23.25;;;7.57;;
84351;SDS011;75904;43.524;1.518;2024-02-26T00:40:11;26.27;;;7.95;;
84351;SDS011;75904;43.524;1.518;2024-02-26T00:42:36;20.73;;;7.68;;
84351;SDS011;75904;43.524;1.518;2024-02-26T00:45:02;24.02;;;7.15;;
84351;SDS011;75904;43.524;1.518;2024-02-26T00:47:27;23.65;;;8.02;;
84351;SDS011;75904;43.524;1.518;2024-02-26T00:49:53;26.70;;;8.50;;
84351;SDS011;75904;43.524;1.518;2024-02-26T00:52:19;24.30;;;7.60;;
84351;SDS011;75904;43.524;1.518;2024-02-26T00:54:44;25.58;;;7.95;;
84351;SDS011;75904;43.524;1.518;2024-02-26T00:57:09;28.48;;;8.20;;
84351;SDS011;75904;43.524;1.518;2024-02-26T00:59:35;32.35;;;9.27;;
84351;SDS011;75904;43.524;1.518;2024-02-26T01:02:00;33.53;;;8.80;;
84351;SDS011;75904;43.524;1.518;2024-02-26T01:04:27;36.78;;;11.68;;
84351;SDS011;75904;43.524;1.518;2024-02-26T01:06:52;33.17;;;8.40;;
84351;SDS011;75904;43.524;1.518;2024-02-26T01:09:18;29.75;;;8.95;;
84351;SDS011;75904;43.524;1.518;2024-02-26T01:11:43;31.17;;;8.45;;
84351;SDS011;75904;43.524;1.518;2024-02-26T01:14:09;34.70;;;9.77;;
84351;SDS011;75904;43.524;1.518;2024-02-26T01:16:34;33.67;;;9.07;;
84351;SDS011;75904;43.524;1.518;2024-02-26T01:19:00;31.48;;;8.68;;
84351;SDS011;75904;43.524;1.518;2024-02-26T01:21:25;28.70;;;8.88;;
84351;SDS011;75904;43.524;1.518;2024-02-26T01:23:54;29.50;;;7.85;;
84351;SDS011;75904;43.524;1.518;2024-02-26T01:26:19;26.05;;;7.43;;
84351;SDS011;75904;43.524;1.518;2024-02-26T01:28:44;22.77;;;6.65;;
84351;SDS011;75904;43.524;1.518;2024-02-26T01:31:10;22.70;;;6.38;;
84351;SDS011;75904;43.524;1.518;2024-02-26T01:33:35;21.80;;;5.95;;
84351;SDS011;75904;43.524;1.518;2024-02-26T01:36:01;19.30;;;6.30;;
84351;SDS011;75904;43.524;1.518;2024-02-26T01:38:26;20.33;;;5.85;;
84351;SDS011;75904;43.524;1.518;2024-02-26T01:40:52;22.52;;;6.70;;
84351;SDS011;75904;43.524;1.518;2024-02-26T01:43:18;19.90;;;6.05;;
84351;SDS011;75904;43.524;1.518;2024-02-26T01:45:43;21.98;;;6.72;;
84351;SDS011;75904;43.524;1.518;2024-02-26T01:48:08;20.50;;;6.45;;
84351;SDS011;75904;43.524;1.518;2024-02-26T01:50:35;21.27;;;6.80;;
84351;SDS011;75904;43.524;1.518;2024-02-26T01:53:02;21.92;;;6.82;;
84351;SDS011;75904;43.524;1.518;2024-02-26T01:55:28;23.63;;;6.70;;
84351;SDS011;75904;43.524;1.518;2024-02-26T01:57:54;28.08;;;7.10;;
84351;SDS011;75904;43.524;1.518;2024-02-26T02:00:20;22.25;;;7.00;;
84351;SDS011;75904;43.524;1.518;2024-02-26T02:02:46;21.77;;;6.35;;
84351;SDS011;75904;43.524;1.518;2024-02-26T02:05:13;29.13;;;7.57;;
84351;SDS011;75904;43.524;1.518;2024-02-26T02:07:41;26.90;;;8.20;;
84351;SDS011;75904;43.524;1.518;2024-02-26T02:10:07;31.73;;;7.88;;
84351;SDS011;75904;43.524;1.518;2024-02-26T02:12:33;23.85;;;7.05;;
84351;SDS011;75904;43.524;1.518;2024-02-26T02:14:59;26.83;;;6.80;;
84351;SDS011;75904;43.524;1.518;2024-02-26T02:17:25;21.98;;;7.78;;
84351;SDS011;75904;43.524;1.518;2024-02-26T02:19:52;25.02;;;6.25;;
84351;SDS011;75904;43.524;1.518;2024-02-26T02:22:18;21.58;;;6.43;;
84351;SDS011;75904;43.524;1.518;2024-02-26T02:24:43;24.92;;;6.82;;
84351;SDS011;75904;43.524;1.518;2024-02-26T02:27:08;22.92;;;6.65;;
84351;SDS011;75904;43.524;1.518;2024-02-26T02:29:34;20.95;;;5.88;;
84351;SDS011;75904;43.524;1.518;2024-02-26T02:32:00;18.13;;;5.65;;
84351;SDS011;75904;43.524;1.518;2024-02-26T02:34:27;17.27;;;5.95;;
84351;SDS011;75904;43.524;1.518;2024-02-26T02:36:53;23.02;;;6.32;;
84351;SDS011;75904;43.524;1.518;2024-02-26T02:39:19;22.15;;;6.57;;
84351;SDS011;75904;43.524;1.518;2024-02-26T02:41:45;21.25;;;6.65;;
84351;SDS011;75904;43.524;1.518;2024-02-26T02:44:11;27.33;;;7.15;;
84351;SDS011;75904;43.524;1.518;2024-02-26T02:46:36;28.45;;;8.07;;
84351;SDS011;75904;43.524;1.518;2024-02-26T02:49:02;28.98;;;8.27;;
84351;SDS011;75904;43.524;1.518;2024-02-26T02:51:27;25.55;;;7.25;;
84351;SDS011;75904;43.524;1.518;2024-02-26T02:53:53;26.52;;;7.53;;
84351;SDS011;75904;43.524;1.518;2024-02-26T02:56:18;34.25;;;8.75;;
84351;SDS011;75904;43.524;1.518;2024-02-26T02:58:44;22.80;;;7.53;;
84351;SDS011;75904;43.524;1.518;2024-02-26T03:01:09;26.80;;;7.45;;
84351;SDS011;75904;43.524;1.518;2024-02-26T03:03:35;28.25;;;7.82;;
84351;SDS011;75904;43.524;1.518;2024-02-26T03:06:02;32.42;;;7.28;;
84351;SDS011;75904;43.524;1.518;2024-02-26T03:08:28;30.95;;;8.60;;
84351;SDS011;75904;43.524;1.518;2024-02-26T03:10:54;30.55;;;7.72;;
84351;SDS011;75904;43.524;1.518;2024-02-26T03:13:19;24.75;;;7.05;;
84351;SDS011;75904;43.524;1.518;2024-02-26T03:15:45;25.70;;;7.60;;
84351;SDS011;75904;43.524;1.518;2024-02-26T03:18:10;25.73;;;7.57;;
84351;SDS011;75904;43.524;1.518;2024-02-26T03:20:36;25.60;;;7.13;;
84351;SDS011;75904;43.524;1.518;2024-02-26T03:23:02;21.40;;;6.57;;
84351;SDS011;75904;43.524;1.518;2024-02-26T03:25:27;18.67;;;6.28;;
84351;SDS011;75904;43.524;1.518;2024-02-26T03:27:53;14.90;;;5.35;;
84351;SDS011;75904;43.524;1.518;2024-02-26T03:30:18;18.08;;;5.72;;
84351;SDS011;75904;43.524;1.518;2024-02-26T03:32:43;14.27;;;3.38;;
84351;SDS011;75904;43.524;1.518;2024-02-26T03:35:09;15.85;;;3.45;;
84351;SDS011;75904;43.524;1.518;2024-02-26T03:37:34;7.28;;;1.95;;
84351;SDS011;75904;43.524;1.518;2024-02-26T03:40:00;12.93;;;1.70;;
84351;SDS011;75904;43.524;1.518;2024-02-26T03:42:26;9.05;;;1.60;;
84351;SDS011;75904;43.524;1.518;2024-02-26T03:44:51;12.65;;;1.52;;
84351;SDS011;75904;43.524;1.518;2024-02-26T03:47:17;9.43;;;1.80;;
84351;SDS011;75904;43.524;1.518;2024-02-26T03:49:42;9.18;;;1.38;;
84351;SDS011;75904;43.524;1.518;2024-02-26T03:52:08;9.80;;;1.77;;
84351;SDS011;75904;43.524;1.518;2024-02-26T03:54:33;8.30;;;1.75;;
84351;SDS011;75904;43.524;1.518;2024-02-26T03:56:58;7.10;;;1.58;;
84351;SDS011;75904;43.524;1.518;2024-02-26T03:59:24;11.38;;;1.60;;
84351;SDS011;75904;43.524;1.518;2024-02-26T04:01:50;8.30;;;1.48;;
84351;SDS011;75904;43.524;1.518;2024-02-26T04:04:16;9.90;;;1.63;;
84351;SDS011;75904;43.524;1.518;2024-02-26T04:06:47;10.38;;;1.30;;
84351;SDS011;75904;43.524;1.518;2024-02-26T04:09:13;9.35;;;1.58;;
84351;SDS011;75904;43.524;1.518;2024-02-26T04:11:39;9.63;;;2.00;;
84351;SDS011;75904;43.524;1.518;2024-02-26T04:14:04;7.13;;;1.30;;
84351;SDS011;75904;43.524;1.518;2024-02-26T04:16:33;6.38;;;1.50;;
84351;SDS011;75904;43.524;1.518;2024-02-26T07:49:42;16.40;;;4.80;;
84351;SDS011;75904;43.524;1.518;2024-02-26T07:52:09;24.90;;;5.80;;
84351;SDS011;75904;43.524;1.518;2024-02-26T07:54:34;9.18;;;2.28;;
84351;SDS011;75904;43.524;1.518;2024-02-26T07:56:59;18.02;;;3.83;;
84351;SDS011;75904;43.524;1.518;2024-02-26T07:59:25;6.60;;;1.10;;
84351;SDS011;75904;43.524;1.518;2024-02-26T08:01:50;6.85;;;1.80;;
84351;SDS011;75904;43.524;1.518;2024-02-26T08:04:16;6.78;;;2.17;;
84351;SDS011;75904;43.524;1.518;2024-02-26T08:06:42;6.82;;;1.48;;
84351;SDS011;75904;43.524;1.518;2024-02-26T08:09:08;9.32;;;1.98;;
84351;SDS011;75904;43.524;1.518;2024-02-26T08:11:33;5.38;;;1.30;;
84351;SDS011;75904;43.524;1.518;2024-02-26T08:13:58;10.25;;;2.00;;
84351;SDS011;75904;43.524;1.518;2024-02-26T08:16:24;9.45;;;2.17;;
84351;SDS011;75904;43.524;1.518;2024-02-26T08:18:49;7.57;;;2.28;;
84351;SDS011;75904;43.524;1.518;2024-02-26T08:21:15;9.70;;;1.85;;
84351;SDS011;75904;43.524;1.518;2024-02-26T08:23:40;5.10;;;1.10;;
84351;SDS011;75904;43.524;1.518;2024-02-26T08:26:05;5.18;;;1.40;;
84351;SDS011;75904;43.524;1.518;2024-02-26T08:28:32;5.78;;;1.17;;
84351;SDS011;75904;43.524;1.518;2024-02-26T08:30:57;4.78;;;0.80;;
84351;SDS011;75904;43.524;1.518;2024-02-26T08:33:23;10.02;;;2.00;;
84351;SDS011;75904;43.524;1.518;2024-02-26T08:35:48;3.60;;;1.10;;
84351;SDS011;75904;43.524;1.518;2024-02-26T08:38:14;5.15;;;1.67;;
84351;SDS011;75904;43.524;1.518;2024-02-26T08:40:39;5.47;;;1.60;;
84351;SDS011;75904;43.524;1.518;2024-02-26T08:43:04;3.55;;;1.67;;
84351;SDS011;75904;43.524;1.518;2024-02-26T08:45:30;6.93;;;1.48;;
84351;SDS011;75904;43.524;1.518;2024-02-26T08:47:55;51.17;;;23.15;;
84351;SDS011;75904;43.524;1.518;2024-02-26T08:50:21;15.68;;;6.45;;
84351;SDS011;75904;43.524;1.518;2024-02-26T08:52:46;3.65;;;1.77;;
84351;SDS011;75904;43.524;1.518;2024-02-26T08:55:15;7.22;;;2.40;;
84351;SDS011;75904;43.524;1.518;2024-02-26T08:57:40;4.32;;;2.22;;
84351;SDS011;75904;43.524;1.518;2024-02-26T09:00:06;6.80;;;1.25;;
84351;SDS011;75904;43.524;1.518;2024-02-26T09:02:32;5.88;;;1.42;;
84351;SDS011;75904;43.524;1.518;2024-02-26T09:04:57;4.30;;;1.27;;
84351;SDS011;75904;43.524;1.518;2024-02-26T09:07:23;3.97;;;1.15;;
84351;SDS011;75904;43.524;1.518;2024-02-26T09:09:48;3.85;;;1.00;;
84351;SDS011;75904;43.524;1.518;2024-02-26T09:12:13;2.28;;;0.95;;
84351;SDS011;75904;43.524;1.518;2024-02-26T09:14:39;4.40;;;1.00;;
84351;SDS011;75904;43.524;1.518;2024-02-26T09:17:04;9.07;;;2.60;;
84351;SDS011;75904;43.524;1.518;2024-02-26T09:19:30;8.18;;;2.47;;
84351;SDS011;75904;43.524;1.518;2024-02-26T09:21:56;2.92;;;0.90;;
84351;SDS011;75904;43.524;1.518;2024-02-26T09:24:23;3.10;;;0.98;;
84351;SDS011;75904;43.524;1.518;2024-02-26T09:26:49;6.15;;;2.13;;
84351;SDS011;75904;43.524;1.518;2024-02-26T09:29:14;5.47;;;1.30;;
84351;SDS011;75904;43.524;1.518;2024-02-26T09:31:40;6.93;;;2.97;;
84351;SDS011;75904;43.524;1.518;2024-02-26T09:34:06;2.30;;;0.90;;
84351;SDS011;75904;43.524;1.518;2024-02-26T09:36:32;10.65;;;3.13;;
84351;SDS011;75904;43.524;1.518;2024-02-26T09:38:58;6.55;;;2.08;;
84351;SDS011;75904;43.524;1.518;2024-02-26T09:41:24;52.47;;;20.90;;
84351;SDS011;75904;43.524;1.518;2024-02-26T09:43:53;6.85;;;1.65;;
84351;SDS011;75904;43.524;1.518;2024-02-26T09:46:27;7.75;;;2.38;;
84351;SDS011;75904;43.524;1.518;2024-02-26T09:48:53;3.85;;;0.80;;
84351;SDS011;75904;43.524;1.518;2024-02-26T09:51:20;1.92;;;0.70;;
84351;SDS011;75904;43.524;1.518;2024-02-26T09:53:53;3.13;;;0.80;;
84351;SDS011;75904;43.524;1.518;2024-02-26T09:56:19;2.38;;;0.80;;
84351;SDS011;75904;43.524;1.518;2024-02-26T09:58:46;4.20;;;1.00;;
84351;SDS011;75904;43.524;1.518;2024-02-26T10:01:16;5.13;;;1.15;;
84351;SDS011;75904;43.524;1.518;2024-02-26T10:03:43;1.45;;;0.75;;
84351;SDS011;75904;43.524;1.518;2024-02-26T10:06:10;2.50;;;0.80;;
84351;SDS011;75904;43.524;1.518;2024-02-26T10:08:36;2.67;;;0.68;;
84351;SDS011;75904;43.524;1.518;2024-02-26T10:11:05;2.30;;;1.17;;
84351;SDS011;75904;43.524;1.518;2024-02-26T10:13:31;10.75;;;3.00;;
84351;SDS011;75904;43.524;1.518;2024-02-26T10:15:57;3.67;;;0.73;;
84351;SDS011;75904;43.524;1.518;2024-02-26T10:18:23;1.92;;;0.82;;
84351;SDS011;75904;43.524;1.518;2024-02-26T10:21:01;3.25;;;0.88;;
84351;SDS011;75904;43.524;1.518;2024-02-26T10:23:27;1.80;;;0.77;;
84351;SDS011;75904;43.524;1.518;2024-02-26T10:25:55;3.35;;;0.90;;
84351;SDS011;75904;43.524;1.518;2024-02-26T10:28:22;4.05;;;0.90;;
84351;SDS011;75904;43.524;1.518;2024-02-26T10:30:47;1.77;;;0.90;;
84351;SDS011;75904;43.524;1.518;2024-02-26T10:33:12;15.80;;;7.10;;
84351;SDS011;75904;43.524;1.518;2024-02-26T10:35:39;5.07;;;1.40;;
84351;SDS011;75904;43.524;1.518;2024-02-26T10:38:06;3.42;;;1.00;;
84351;SDS011;75904;43.524;1.518;2024-02-26T10:40:32;1.92;;;0.70;;
84351;SDS011;75904;43.524;1.518;2024-02-26T10:42:57;2.67;;;0.70;;
84351;SDS011;75904;43.524;1.518;2024-02-26T10:45:23;1.50;;;0.57;;
84351;SDS011;75904;43.524;1.518;2024-02-26T10:47:49;6.82;;;1.60;;
84351;SDS011;75904;43.524;1.518;2024-02-26T10:50:15;3.08;;;0.80;;
84351;SDS011;75904;43.524;1.518;2024-02-26T10:52:41;4.78;;;0.85;;
84351;SDS011;75904;43.524;1.518;2024-02-26T10:55:07;2.72;;;0.60;;
84351;SDS011;75904;43.524;1.518;2024-02-26T10:57:40;2.90;;;0.70;;
84351;SDS011;75904;43.524;1.518;2024-02-26T11:00:08;3.22;;;0.70;;
84351;SDS011;75904;43.524;1.518;2024-02-26T11:02:37;5.70;;;2.10;;
84351;SDS011;75904;43.524;1.518;2024-02-26T11:05:05;3.10;;;0.80;;
84351;SDS011;75904;43.524;1.518;2024-02-26T11:07:32;4.55;;;0.80;;
84351;SDS011;75904;43.524;1.518;2024-02-26T11:09:59;3.35;;;1.02;;
84351;SDS011;75904;43.524;1.518;2024-02-26T11:12:25;5.20;;;1.23;;
84351;SDS011;75904;43.524;1.518;2024-02-26T11:14:53;3.60;;;1.23;;
84351;SDS011;75904;43.524;1.518;2024-02-26T11:17:21;1.45;;;0.50;;
84351;SDS011;75904;43.524;1.518;2024-02-26T11:19:49;3.83;;;1.00;;
84351;SDS011;75904;43.524;1.518;2024-02-26T11:22:15;1.42;;;0.70;;
84351;SDS011;75904;43.524;1.518;2024-02-26T11:24:40;2.80;;;0.60;;
84351;SDS011;75904;43.524;1.518;2024-02-26T11:27:07;8.10;;;2.45;;
84351;SDS011;75904;43.524;1.518;2024-02-26T11:29:41;1.48;;;0.55;;
84351;SDS011;75904;43.524;1.518;2024-02-26T11:32:09;4.15;;;1.00;;
84351;SDS011;75904;43.524;1.518;2024-02-26T11:34:36;1.25;;;0.60;;
84351;SDS011;75904;43.524;1.518;2024-02-26T11:37:11;2.05;;;0.80;;
84351;SDS011;75904;43.524;1.518;2024-02-26T11:39:38;5.00;;;1.73;;
84351;SDS011;75904;43.524;1.518;2024-02-26T11:42:06;9.07;;;1.42;;
84351;SDS011;75904;43.524;1.518;2024-02-26T11:44:33;4.82;;;1.92;;
84351;SDS011;75904;43.524;1.518;2024-02-26T11:46:59;2.05;;;1.00;;
84351;SDS011;75904;43.524;1.518;2024-02-26T11:49:34;7.47;;;3.30;;
84351;SDS011;75904;43.524;1.518;2024-02-26T11:52:00;1.92;;;0.60;;
84351;SDS011;75904;43.524;1.518;2024-02-26T12:02:51;1.27;;;0.43;;
84351;SDS011;75904;43.524;1.518;2024-02-26T12:05:26;3.50;;;0.60;;
84351;SDS011;75904;43.524;1.518;2024-02-26T12:07:54;3.67;;;0.85;;
84351;SDS011;75904;43.524;1.518;2024-02-26T12:10:28;3.38;;;0.75;;
84351;SDS011;75904;43.524;1.518;2024-02-26T12:13:02;0.40;;;0.40;;
84351;SDS011;75904;43.524;1.518;2024-02-26T12:15:37;0.75;;;0.50;;
84351;SDS011;75904;43.524;1.518;2024-02-26T12:18:04;2.97;;;0.50;;
84351;SDS011;75904;43.524;1.518;2024-02-26T12:20:31;2.78;;;0.70;;
84351;SDS011;75904;43.524;1.518;2024-02-26T12:22:57;1.45;;;0.50;;
84351;SDS011;75904;43.524;1.518;2024-02-26T12:25:24;1.40;;;0.50;;
84351;SDS011;75904;43.524;1.518;2024-02-26T12:27:51;1.65;;;0.50;;
84351;SDS011;75904;43.524;1.518;2024-02-26T12:30:16;2.95;;;0.60;;
84351;SDS011;75904;43.524;1.518;2024-02-26T12:32:42;3.70;;;0.60;;
84351;SDS011;75904;43.524;1.518;2024-02-26T12:35:08;1.20;;;0.60;;
84351;SDS011;75904;43.524;1.518;2024-02-26T12:37:33;1.85;;;0.40;;
84351;SDS011;75904;43.524;1.518;2024-02-26T12:40:02;1.85;;;0.47;;
84351;SDS011;75904;43.524;1.518;2024-02-26T12:42:30;0.80;;;0.40;;
84351;SDS011;75904;43.524;1.518;2024-02-26T12:44:58;0.85;;;0.47;;
84351;SDS011;75904;43.524;1.518;2024-02-26T12:47:23;21.98;;;11.07;;
84351;SDS011;75904;43.524;1.518;2024-02-26T12:49:49;16.42;;;7.13;;
84351;SDS011;75904;43.524;1.518;2024-02-26T12:52:14;3.33;;;1.08;;
84351;SDS011;75904;43.524;1.518;2024-02-26T12:54:41;1.33;;;0.40;;
84351;SDS011;75904;43.524;1.518;2024-02-26T12:57:08;1.58;;;0.60;;
84351;SDS011;75904;43.524;1.518;2024-02-26T12:59:34;6.35;;;2.40;;
84351;SDS011;75904;43.524;1.518;2024-02-26T13:02:01;4.50;;;1.50;;
84351;SDS011;75904;43.524;1.518;2024-02-26T13:04:27;3.33;;;1.00;;
84351;SDS011;75904;43.524;1.518;2024-02-26T13:06:54;2.75;;;0.68;;
84351;SDS011;75904;43.524;1.518;2024-02-26T13:09:20;0.82;;;0.30;;
84351;SDS011;75904;43.524;1.518;2024-02-26T13:11:52;2.28;;;0.70;;
84351;SDS011;75904;43.524;1.518;2024-02-26T13:14:19;4.22;;;1.08;;
84351;SDS011;75904;43.524;1.518;2024-02-26T13:16:45;4.13;;;1.30;;
84351;SDS011;75904;43.524;1.518;2024-02-26T13:19:19;3.67;;;1.13;;
84351;SDS011;75904;43.524;1.518;2024-02-26T13:21:45;9.75;;;3.30;;
84351;SDS011;75904;43.524;1.518;2024-02-26T13:24:12;3.55;;;0.70;;
84351;SDS011;75904;43.524;1.518;2024-02-26T13:26:38;3.60;;;0.80;;
84351;SDS011;75904;43.524;1.518;2024-02-26T13:29:04;6.63;;;1.50;;
84351;SDS011;75904;43.524;1.518;2024-02-26T13:31:30;3.03;;;0.70;;
84351;SDS011;75904;43.524;1.518;2024-02-26T13:33:55;3.42;;;0.77;;
84351;SDS011;75904;43.524;1.518;2024-02-26T13:36:21;4.95;;;1.40;;
84351;SDS011;75904;43.524;1.518;2024-02-26T13:38:54;2.72;;;0.90;;
84351;SDS011;75904;43.524;1.518;2024-02-26T13:41:20;2.22;;;0.70;;
84351;SDS011;75904;43.524;1.518;2024-02-26T13:43:49;4.05;;;0.95;;
84351;SDS011;75904;43.524;1.518;2024-02-26T13:46:15;1.65;;;0.70;;
84351;SDS011;75904;43.524;1.518;2024-02-26T13:48:42;1.35;;;0.40;;
84351;SDS011;75904;43.524;1.518;2024-02-26T13:51:07;2.88;;;1.40;;
84351;SDS011;75904;43.524;1.518;2024-02-26T13:53:32;1.70;;;0.60;;
84351;SDS011;75904;43.524;1.518;2024-02-26T13:55:58;1.40;;;0.38;;
84351;SDS011;75904;43.524;1.518;2024-02-26T13:58:26;0.60;;;0.22;;
84351;SDS011;75904;43.524;1.518;2024-02-26T14:00:52;0.40;;;0.40;;
84351;SDS011;75904;43.524;1.518;2024-02-26T14:03:19;1.90;;;0.55;;
84351;SDS011;75904;43.524;1.518;2024-02-26T14:05:45;0.85;;;0.50;;
84351;SDS011;75904;43.524;1.518;2024-02-26T14:08:11;2.05;;;0.77;;
84351;SDS011;75904;43.524;1.518;2024-02-26T14:10:36;1.60;;;0.70;;
84351;SDS011;75904;43.524;1.518;2024-02-26T14:13:02;5.15;;;1.02;;
84351;SDS011;75904;43.524;1.518;2024-02-26T14:15:28;1.85;;;0.40;;
84351;SDS011;75904;43.524;1.518;2024-02-26T14:17:54;3.20;;;0.73;;
84351;SDS011;75904;43.524;1.518;2024-02-26T14:20:21;2.72;;;0.80;;
84351;SDS011;75904;43.524;1.518;2024-02-26T14:22:48;1.70;;;0.45;;
84351;SDS011;75904;43.524;1.518;2024-02-26T14:25:14;1.05;;;0.40;;
84351;SDS011;75904;43.524;1.518;2024-02-26T14:27:39;2.25;;;0.50;;
84351;SDS011;75904;43.524;1.518;2024-02-26T14:30:05;1.83;;;0.50;;
84351;SDS011;75904;43.524;1.518;2024-02-26T14:32:31;1.50;;;0.50;;
84351;SDS011;75904;43.524;1.518;2024-02-26T14:35:00;0.98;;;0.35;;
84351;SDS011;75904;43.524;1.518;2024-02-26T14:37:25;0.65;;;0.35;;
84351;SDS011;75904;43.524;1.518;2024-02-26T14:39:51;2.60;;;0.65;;
84351;SDS011;75904;43.524;1.518;2024-02-26T14:42:17;1.77;;;0.63;;
84351;SDS011;75904;43.524;1.518;2024-02-26T14:44:43;4.15;;;0.50;;
84351;SDS011;75904;43.524;1.518;2024-02-26T14:47:09;0.50;;;0.40;;
84351;SDS011;75904;43.524;1.518;2024-02-26T14:49:34;1.40;;;0.30;;
84351;SDS011;75904;43.524;1.518;2024-02-26T14:52:00;0.57;;;0.25;;
84351;SDS011;75904;43.524;1.518;2024-02-26T14:54:25;3.08;;;0.50;;
84351;SDS011;75904;43.524;1.518;2024-02-26T14:56:52;0.95;;;0.47;;
84351;SDS011;75904;43.524;1.518;2024-02-26T14:59:17;0.40;;;0.22;;
84351;SDS011;75904;43.524;1.518;2024-02-26T15:01:43;1.85;;;0.60;;
84351;SDS011;75904;43.524;1.518;2024-02-26T15:04:08;1.35;;;0.50;;
84351;SDS011;75904;43.524;1.518;2024-02-26T15:06:33;1.20;;;0.43;;
84351;SDS011;75904;43.524;1.518;2024-02-26T15:09:00;0.65;;;0.65;;
84351;SDS011;75904;43.524;1.518;2024-02-26T15:11:25;1.88;;;0.65;;
84351;SDS011;75904;43.524;1.518;2024-02-26T15:13:51;2.65;;;0.73;;
84351;SDS011;75904;43.524;1.518;2024-02-26T15:16:20;1.60;;;0.70;;
84351;SDS011;75904;43.524;1.518;2024-02-26T15:18:45;1.98;;;0.40;;
84351;SDS011;75904;43.524;1.518;2024-02-26T15:21:11;2.75;;;0.57;;
84351;SDS011;75904;43.524;1.518;2024-02-26T15:23:38;1.80;;;0.35;;
84351;SDS011;75904;43.524;1.518;2024-02-26T15:26:04;0.70;;;0.25;;
84351;SDS011;75904;43.524;1.518;2024-02-26T15:28:29;0.57;;;0.40;;
84351;SDS011;75904;43.524;1.518;2024-02-26T15:30:54;0.20;;;0.20;;
84351;SDS011;75904;43.524;1.518;2024-02-26T15:33:20;2.78;;;0.57;;
84351;SDS011;75904;43.524;1.518;2024-02-26T15:35:46;1.05;;;0.57;;
84351;SDS011;75904;43.524;1.518;2024-02-26T15:38:11;0.30;;;0.30;;
84351;SDS011;75904;43.524;1.518;2024-02-26T15:40:38;1.05;;;0.40;;
84351;SDS011;75904;43.524;1.518;2024-02-26T15:43:03;0.30;;;0.30;;
84351;SDS011;75904;43.524;1.518;2024-02-26T15:45:29;1.02;;;0.38;;
84351;SDS011;75904;43.524;1.518;2024-02-26T15:47:57;0.50;;;0.30;;
84351;SDS011;75904;43.524;1.518;2024-02-26T15:50:23;1.75;;;0.17;;
84351;SDS011;75904;43.524;1.518;2024-02-26T15:52:48;0.35;;;0.20;;
84351;SDS011;75904;43.524;1.518;2024-02-26T15:55:14;1.38;;;0.32;;
84351;SDS011;75904;43.524;1.518;2024-02-26T15:57:40;1.98;;;0.47;;
84351;SDS011;75904;43.524;1.518;2024-02-26T16:00:06;0.80;;;0.50;;
84351;SDS011;75904;43.524;1.518;2024-02-26T16:02:35;2.17;;;0.50;;
84351;SDS011;75904;43.524;1.518;2024-02-26T16:05:01;0.77;;;0.40;;
84351;SDS011;75904;43.524;1.518;2024-02-26T16:07:29;1.40;;;0.30;;
84351;SDS011;75904;43.524;1.518;2024-02-26T16:09:59;0.93;;;0.40;;
84351;SDS011;75904;43.524;1.518;2024-02-26T16:12:29;1.83;;;0.90;;
84351;SDS011;75904;43.524;1.518;2024-02-26T16:15:02;0.30;;;0.30;;
84351;SDS011;75904;43.524;1.518;2024-02-26T16:17:29;0.47;;;0.20;;
84351;SDS011;75904;43.524;1.518;2024-02-26T16:19:58;0.47;;;0.22;;
84351;SDS011;75904;43.524;1.518;2024-02-26T16:22:24;0.60;;;0.20;;
84351;SDS011;75904;43.524;1.518;2024-02-26T16:24:50;1.42;;;0.50;;
84351;SDS011;75904;43.524;1.518;2024-02-26T16:27:15;0.52;;;0.45;;
84351;SDS011;75904;43.524;1.518;2024-02-26T16:29:41;0.70;;;0.30;;
84351;SDS011;75904;43.524;1.518;2024-02-26T16:32:07;1.23;;;0.40;;
84351;SDS011;75904;43.524;1.518;2024-02-26T16:34:33;0.40;;;0.30;;
84351;SDS011;75904;43.524;1.518;2024-02-26T16:36:59;1.20;;;0.50;;
84351;SDS011;75904;43.524;1.518;2024-02-26T16:39:24;1.67;;;0.57;;
84351;SDS011;75904;43.524;1.518;2024-02-26T16:41:49;0.40;;;0.40;;
84351;SDS011;75904;43.524;1.518;2024-02-26T16:44:15;0.30;;;0.30;;
84351;SDS011;75904;43.524;1.518;2024-02-26T16:46:40;0.45;;;0.43;;
84351;SDS011;75904;43.524;1.518;2024-02-26T16:49:06;0.30;;;0.30;;
84351;SDS011;75904;43.524;1.518;2024-02-26T16:51:31;0.40;;;0.40;;
84351;SDS011;75904;43.524;1.518;2024-02-26T16:53:56;0.95;;;0.40;;
84351;SDS011;75904;43.524;1.518;2024-02-26T16:56:22;0.70;;;0.40;;
84351;SDS011;75904;43.524;1.518;2024-02-26T16:58:47;0.43;;;0.43;;
84351;SDS011;75904;43.524;1.518;2024-02-26T17:01:12;0.82;;;0.50;;
84351;SDS011;75904;43.524;1.518;2024-02-26T17:03:38;0.63;;;0.40;;
84351;SDS011;75904;43.524;1.518;2024-02-26T17:06:03;0.52;;;0.45;;
84351;SDS011;75904;43.524;1.518;2024-02-26T17:08:29;0.40;;;0.40;;
84351;SDS011;75904;43.524;1.518;2024-02-26T17:10:58;0.75;;;0.50;;
84351;SDS011;75904;43.524;1.518;2024-02-26T17:13:25;1.73;;;0.63;;
84351;SDS011;75904;43.524;1.518;2024-02-26T17:15:53;0.80;;;0.50;;
84351;SDS011;75904;43.524;1.518;2024-02-26T17:18:19;0.95;;;0.40;;
84351;SDS011;75904;43.524;1.518;2024-02-26T17:20:46;1.23;;;0.70;;
84351;SDS011;75904;43.524;1.518;2024-02-26T17:23:11;2.65;;;1.17;;
84351;SDS011;75904;43.524;1.518;2024-02-26T17:25:37;2.45;;;1.25;;
84351;SDS011;75904;43.524;1.518;2024-02-26T17:28:02;4.10;;;2.40;;
84351;SDS011;75904;43.524;1.518;2024-02-26T17:30:28;1.95;;;1.52;;
84351;SDS011;75904;43.524;1.518;2024-02-26T17:32:53;9.27;;;6.00;;
84351;SDS011;75904;43.524;1.518;2024-02-26T17:35:18;2.35;;;1.42;;
84351;SDS011;75904;43.524;1.518;2024-02-26T17:37:44;3.05;;;1.20;;
84351;SDS011;75904;43.524;1.518;2024-02-26T17:40:09;1.13;;;0.82;;
84351;SDS011;75904;43.524;1.518;2024-02-26T17:42:36;1.95;;;1.23;;
84351;SDS011;75904;43.524;1.518;2024-02-26T17:45:02;1.20;;;1.00;;
84351;SDS011;75904;43.524;1.518;2024-02-26T17:47:28;2.40;;;1.35;;
84351;SDS011;75904;43.524;1.518;2024-02-26T17:49:54;9.70;;;5.07;;
84351;SDS011;75904;43.524;1.518;2024-02-26T17:52:19;8.23;;;3.03;;
84351;SDS011;75904;43.524;1.518;2024-02-26T17:54:45;2.70;;;1.40;;
84351;SDS011;75904;43.524;1.518;2024-02-26T17:57:10;1.63;;;1.15;;
84351;SDS011;75904;43.524;1.518;2024-02-26T17:59:36;2.03;;;1.10;;
84351;SDS011;75904;43.524;1.518;2024-02-26T18:02:01;1.23;;;0.82;;
